sensor_id;sensor_type;location;lat;lon;timestamp;P1;durP1;ratioP1;P2;durP2;ratioP2
55300;SDS011;58302;51.446;-2.000;2022-07-10T00:00:39;2.13;;;0.98;;
55300;SDS011;58302;51.446;-2.000;2022-07-10T00:03:05;1.65;;;1.27;;
55300;SDS011;58302;51.446;-2.000;2022-07-10T00:05:31;0.95;;;0.95;;
55300;SDS011;58302;51.446;-2.000;2022-07-10T00:07:59;3.05;;;1.13;;
55300;SDS011;58302;51.446;-2.000;2022-07-10T00:10:26;1.58;;;1.05;;
55300;SDS011;58302;51.446;-2.000;2022-07-10T00:12:54;1.80;;;0.95;;
55300;SDS011;58302;51.446;-2.000;2022-07-10T00:15:20;2.10;;;1.40;;
55300;SDS011;58302;51.446;-2.000;2022-07-10T00:17:46;0.57;;;0.57;;
55300;SDS011;58302;51.446;-2.000;2022-07-10T00:20:14;1.33;;;0.77;;
55300;SDS011;58302;51.446;-2.000;2022-07-10T00:22:40;1.55;;;1.20;;
55300;SDS011;58302;51.446;-2.000;2022-07-10T00:25:09;3.72;;;1.52;;
55300;SDS011;58302;51.446;-2.000;2022-07-10T00:27:36;1.05;;;1.00;;
55300;SDS011;58302;51.446;-2.000;2022-07-10T00:30:02;1.65;;;0.88;;
55300;SDS011;58302;51.446;-2.000;2022-07-10T00:32:29;2.97;;;1.02;;
55300;SDS011;58302;51.446;-2.000;2022-07-10T00:34:55;1.95;;;1.23;;
55300;SDS011;58302;51.446;-2.000;2022-07-10T00:37:21;1.95;;;0.95;;
55300;SDS011;58302;51.446;-2.000;2022-07-10T00:39:48;0.95;;;0.90;;
55300;SDS011;58302;51.446;-2.000;2022-07-10T00:42:15;1.55;;;1.20;;
55300;SDS011;58302;51.446;-2.000;2022-07-10T00:44:42;2.28;;;1.60;;
55300;SDS011;58302;51.446;-2.000;2022-07-10T00:47:09;1.20;;;0.98;;
55300;SDS011;58302;51.446;-2.000;2022-07-10T00:49:37;1.10;;;1.00;;
55300;SDS011;58302;51.446;-2.000;2022-07-10T00:52:08;2.75;;;1.48;;
55300;SDS011;58302;51.446;-2.000;2022-07-10T00:57:07;1.50;;;1.20;;
55300;SDS011;58302;51.446;-2.000;2022-07-10T00:59:34;2.28;;;1.48;;
55300;SDS011;58302;51.446;-2.000;2022-07-10T01:02:03;1.50;;;1.33;;
55300;SDS011;58302;51.446;-2.000;2022-07-10T01:04:31;1.85;;;1.33;;
55300;SDS011;58302;51.446;-2.000;2022-07-10T01:06:57;3.15;;;1.33;;
55300;SDS011;58302;51.446;-2.000;2022-07-10T01:09:24;1.98;;;1.05;;
55300;SDS011;58302;51.446;-2.000;2022-07-10T01:11:50;2.25;;;1.00;;
55300;SDS011;58302;51.446;-2.000;2022-07-10T01:14:16;3.17;;;1.20;;
55300;SDS011;58302;51.446;-2.000;2022-07-10T01:16:43;1.75;;;1.17;;
55300;SDS011;58302;51.446;-2.000;2022-07-10T01:19:09;3.42;;;1.30;;
55300;SDS011;58302;51.446;-2.000;2022-07-10T01:21:35;2.42;;;1.35;;
55300;SDS011;58302;51.446;-2.000;2022-07-10T01:24:06;2.53;;;1.15;;
55300;SDS011;58302;51.446;-2.000;2022-07-10T01:26:34;3.30;;;2.22;;
55300;SDS011;58302;51.446;-2.000;2022-07-10T01:29:07;2.00;;;1.13;;
55300;SDS011;58302;51.446;-2.000;2022-07-10T01:31:35;2.47;;;1.40;;
55300;SDS011;58302;51.446;-2.000;2022-07-10T01:34:02;3.75;;;1.30;;
55300;SDS011;58302;51.446;-2.000;2022-07-10T01:36:31;1.90;;;1.08;;
55300;SDS011;58302;51.446;-2.000;2022-07-10T01:38:59;1.88;;;1.40;;
55300;SDS011;58302;51.446;-2.000;2022-07-10T01:41:25;1.58;;;1.17;;
55300;SDS011;58302;51.446;-2.000;2022-07-10T01:43:52;2.13;;;1.10;;
55300;SDS011;58302;51.446;-2.000;2022-07-10T01:46:20;4.18;;;1.42;;
55300;SDS011;58302;51.446;-2.000;2022-07-10T01:48:47;1.77;;;1.15;;
55300;SDS011;58302;51.446;-2.000;2022-07-10T01:51:13;1.92;;;1.20;;
55300;SDS011;58302;51.446;-2.000;2022-07-10T01:53:41;1.55;;;1.20;;
55300;SDS011;58302;51.446;-2.000;2022-07-10T01:56:09;2.78;;;1.20;;
55300;SDS011;58302;51.446;-2.000;2022-07-10T01:58:36;1.63;;;1.30;;
55300;SDS011;58302;51.446;-2.000;2022-07-10T02:01:03;1.98;;;1.20;;
55300;SDS011;58302;51.446;-2.000;2022-07-10T02:03:30;2.25;;;1.42;;
55300;SDS011;58302;51.446;-2.000;2022-07-10T02:06:16;3.03;;;1.58;;
55300;SDS011;58302;51.446;-2.000;2022-07-10T02:08:42;3.28;;;1.67;;
55300;SDS011;58302;51.446;-2.000;2022-07-10T02:11:09;2.25;;;1.60;;
55300;SDS011;58302;51.446;-2.000;2022-07-10T02:13:36;1.30;;;1.20;;
55300;SDS011;58302;51.446;-2.000;2022-07-10T02:16:02;2.28;;;1.70;;
55300;SDS011;58302;51.446;-2.000;2022-07-10T02:18:29;2.15;;;1.50;;
55300;SDS011;58302;51.446;-2.000;2022-07-10T02:20:55;4.13;;;1.67;;
55300;SDS011;58302;51.446;-2.000;2022-07-10T02:23:21;3.05;;;1.70;;
55300;SDS011;58302;51.446;-2.000;2022-07-10T02:25:46;2.88;;;1.80;;
55300;SDS011;58302;51.446;-2.000;2022-07-10T02:28:12;4.35;;;1.60;;
55300;SDS011;58302;51.446;-2.000;2022-07-10T02:30:38;1.73;;;1.60;;
55300;SDS011;58302;51.446;-2.000;2022-07-10T02:33:04;2.13;;;1.60;;
55300;SDS011;58302;51.446;-2.000;2022-07-10T02:35:30;2.97;;;2.25;;
55300;SDS011;58302;51.446;-2.000;2022-07-10T02:37:56;2.85;;;2.00;;
55300;SDS011;58302;51.446;-2.000;2022-07-10T02:40:22;1.95;;;1.75;;
55300;SDS011;58302;51.446;-2.000;2022-07-10T02:42:51;5.55;;;1.88;;
55300;SDS011;58302;51.446;-2.000;2022-07-10T02:45:17;2.30;;;1.70;;
55300;SDS011;58302;51.446;-2.000;2022-07-10T02:47:43;2.88;;;1.92;;
55300;SDS011;58302;51.446;-2.000;2022-07-10T02:50:09;2.33;;;1.40;;
55300;SDS011;58302;51.446;-2.000;2022-07-10T02:52:35;2.03;;;1.40;;
55300;SDS011;58302;51.446;-2.000;2022-07-10T02:55:01;2.60;;;1.98;;
55300;SDS011;58302;51.446;-2.000;2022-07-10T02:57:27;2.85;;;1.70;;
55300;SDS011;58302;51.446;-2.000;2022-07-10T02:59:53;3.63;;;2.00;;
55300;SDS011;58302;51.446;-2.000;2022-07-10T03:02:19;2.78;;;1.88;;
55300;SDS011;58302;51.446;-2.000;2022-07-10T03:04:45;3.97;;;2.00;;
55300;SDS011;58302;51.446;-2.000;2022-07-10T03:07:11;4.45;;;2.13;;
55300;SDS011;58302;51.446;-2.000;2022-07-10T03:09:37;2.47;;;1.73;;
55300;SDS011;58302;51.446;-2.000;2022-07-10T03:12:03;2.10;;;1.70;;
55300;SDS011;58302;51.446;-2.000;2022-07-10T03:14:29;3.08;;;1.90;;
55300;SDS011;58302;51.446;-2.000;2022-07-10T03:16:55;2.60;;;1.75;;
55300;SDS011;58302;51.446;-2.000;2022-07-10T03:19:22;2.65;;;1.85;;
55300;SDS011;58302;51.446;-2.000;2022-07-10T03:21:48;4.40;;;2.13;;
55300;SDS011;58302;51.446;-2.000;2022-07-10T03:24:14;3.15;;;2.05;;
55300;SDS011;58302;51.446;-2.000;2022-07-10T03:26:40;3.42;;;1.80;;
55300;SDS011;58302;51.446;-2.000;2022-07-10T03:29:07;3.17;;;2.10;;
55300;SDS011;58302;51.446;-2.000;2022-07-10T03:31:35;2.17;;;1.98;;
55300;SDS011;58302;51.446;-2.000;2022-07-10T03:34:01;2.63;;;1.95;;
55300;SDS011;58302;51.446;-2.000;2022-07-10T03:36:26;3.30;;;2.17;;
55300;SDS011;58302;51.446;-2.000;2022-07-10T03:38:53;2.97;;;2.08;;
55300;SDS011;58302;51.446;-2.000;2022-07-10T03:41:19;4.47;;;2.40;;
55300;SDS011;58302;51.446;-2.000;2022-07-10T03:43:46;3.35;;;2.10;;
55300;SDS011;58302;51.446;-2.000;2022-07-10T03:46:12;3.20;;;1.80;;
55300;SDS011;58302;51.446;-2.000;2022-07-10T03:48:38;3.00;;;2.08;;
55300;SDS011;58302;51.446;-2.000;2022-07-10T03:51:04;5.18;;;2.28;;
55300;SDS011;58302;51.446;-2.000;2022-07-10T03:53:31;2.58;;;2.05;;
55300;SDS011;58302;51.446;-2.000;2022-07-10T03:55:59;4.93;;;2.40;;
55300;SDS011;58302;51.446;-2.000;2022-07-10T03:58:26;2.20;;;2.00;;
55300;SDS011;58302;51.446;-2.000;2022-07-10T04:00:54;2.35;;;2.03;;
55300;SDS011;58302;51.446;-2.000;2022-07-10T04:05:53;4.82;;;2.30;;
55300;SDS011;58302;51.446;-2.000;2022-07-10T04:08:19;3.85;;;2.13;;
55300;SDS011;58302;51.446;-2.000;2022-07-10T04:10:49;2.65;;;2.13;;
55300;SDS011;58302;51.446;-2.000;2022-07-10T04:13:16;3.92;;;2.42;;
55300;SDS011;58302;51.446;-2.000;2022-07-10T04:15:44;2.97;;;2.55;;
55300;SDS011;58302;51.446;-2.000;2022-07-10T04:18:09;2.47;;;2.00;;
55300;SDS011;58302;51.446;-2.000;2022-07-10T04:20:35;2.67;;;2.47;;
55300;SDS011;58302;51.446;-2.000;2022-07-10T04:23:01;6.43;;;2.20;;
55300;SDS011;58302;51.446;-2.000;2022-07-10T04:25:30;3.00;;;2.10;;
55300;SDS011;58302;51.446;-2.000;2022-07-10T04:28:00;2.47;;;2.15;;
55300;SDS011;58302;51.446;-2.000;2022-07-10T04:30:27;3.38;;;2.20;;
55300;SDS011;58302;51.446;-2.000;2022-07-10T04:32:53;4.50;;;2.50;;
55300;SDS011;58302;51.446;-2.000;2022-07-10T04:35:23;3.67;;;3.13;;
55300;SDS011;58302;51.446;-2.000;2022-07-10T04:37:49;3.83;;;2.60;;
55300;SDS011;58302;51.446;-2.000;2022-07-10T04:40:16;2.53;;;2.20;;
55300;SDS011;58302;51.446;-2.000;2022-07-10T04:42:42;3.88;;;2.65;;
55300;SDS011;58302;51.446;-2.000;2022-07-10T04:45:09;2.97;;;2.50;;
55300;SDS011;58302;51.446;-2.000;2022-07-10T04:47:36;2.92;;;2.17;;
55300;SDS011;58302;51.446;-2.000;2022-07-10T04:50:02;2.67;;;2.13;;
55300;SDS011;58302;51.446;-2.000;2022-07-10T04:52:29;3.03;;;2.50;;
55300;SDS011;58302;51.446;-2.000;2022-07-10T04:54:58;3.00;;;2.67;;
55300;SDS011;58302;51.446;-2.000;2022-07-10T04:57:24;3.10;;;2.50;;
55300;SDS011;58302;51.446;-2.000;2022-07-10T04:59:52;2.92;;;2.30;;
55300;SDS011;58302;51.446;-2.000;2022-07-10T05:02:21;4.25;;;2.53;;
55300;SDS011;58302;51.446;-2.000;2022-07-10T05:04:47;2.67;;;2.45;;
55300;SDS011;58302;51.446;-2.000;2022-07-10T05:07:13;2.88;;;2.25;;
55300;SDS011;58302;51.446;-2.000;2022-07-10T05:09:40;2.80;;;2.08;;
55300;SDS011;58302;51.446;-2.000;2022-07-10T05:12:06;3.78;;;2.13;;
55300;SDS011;58302;51.446;-2.000;2022-07-10T05:14:34;4.30;;;2.15;;
55300;SDS011;58302;51.446;-2.000;2022-07-10T05:17:00;2.88;;;1.90;;
55300;SDS011;58302;51.446;-2.000;2022-07-10T05:19:26;2.50;;;2.30;;
55300;SDS011;58302;51.446;-2.000;2022-07-10T05:21:52;3.25;;;2.00;;
55300;SDS011;58302;51.446;-2.000;2022-07-10T05:24:18;4.80;;;2.13;;
55300;SDS011;58302;51.446;-2.000;2022-07-10T05:26:44;3.00;;;2.67;;
55300;SDS011;58302;51.446;-2.000;2022-07-10T05:29:11;3.17;;;2.30;;
55300;SDS011;58302;51.446;-2.000;2022-07-10T05:31:37;3.05;;;2.78;;
55300;SDS011;58302;51.446;-2.000;2022-07-10T05:34:05;4.13;;;2.08;;
55300;SDS011;58302;51.446;-2.000;2022-07-10T05:36:31;4.60;;;2.65;;
55300;SDS011;58302;51.446;-2.000;2022-07-10T05:38:57;3.08;;;2.13;;
55300;SDS011;58302;51.446;-2.000;2022-07-10T05:41:23;9.00;;;3.67;;
55300;SDS011;58302;51.446;-2.000;2022-07-10T05:43:50;3.42;;;2.33;;
55300;SDS011;58302;51.446;-2.000;2022-07-10T05:46:16;4.88;;;2.67;;
55300;SDS011;58302;51.446;-2.000;2022-07-10T05:48:42;3.10;;;2.03;;
55300;SDS011;58302;51.446;-2.000;2022-07-10T05:51:08;3.15;;;2.70;;
55300;SDS011;58302;51.446;-2.000;2022-07-10T05:53:34;3.03;;;2.42;;
55300;SDS011;58302;51.446;-2.000;2022-07-10T05:56:00;2.70;;;2.50;;
55300;SDS011;58302;51.446;-2.000;2022-07-10T05:58:27;7.00;;;3.60;;
55300;SDS011;58302;51.446;-2.000;2022-07-10T06:00:55;5.07;;;3.63;;
55300;SDS011;58302;51.446;-2.000;2022-07-10T06:03:21;4.43;;;3.20;;
55300;SDS011;58302;51.446;-2.000;2022-07-10T06:05:49;5.10;;;3.92;;
55300;SDS011;58302;51.446;-2.000;2022-07-10T06:08:18;4.13;;;3.38;;
55300;SDS011;58302;51.446;-2.000;2022-07-10T06:10:44;4.32;;;3.53;;
55300;SDS011;58302;51.446;-2.000;2022-07-10T06:13:11;5.30;;;4.30;;
55300;SDS011;58302;51.446;-2.000;2022-07-10T06:15:37;5.15;;;4.22;;
55300;SDS011;58302;51.446;-2.000;2022-07-10T06:18:03;4.07;;;3.42;;
55300;SDS011;58302;51.446;-2.000;2022-07-10T06:20:30;6.47;;;4.40;;
55300;SDS011;58302;51.446;-2.000;2022-07-10T06:22:56;4.75;;;3.50;;
55300;SDS011;58302;51.446;-2.000;2022-07-10T06:25:23;4.65;;;3.45;;
55300;SDS011;58302;51.446;-2.000;2022-07-10T06:27:49;5.30;;;3.70;;
55300;SDS011;58302;51.446;-2.000;2022-07-10T06:30:15;7.15;;;4.78;;
55300;SDS011;58302;51.446;-2.000;2022-07-10T06:32:44;6.55;;;3.97;;
55300;SDS011;58302;51.446;-2.000;2022-07-10T06:35:10;12.85;;;6.70;;
55300;SDS011;58302;51.446;-2.000;2022-07-10T06:37:36;6.75;;;5.03;;
55300;SDS011;58302;51.446;-2.000;2022-07-10T06:40:03;5.47;;;4.55;;
55300;SDS011;58302;51.446;-2.000;2022-07-10T06:42:29;6.22;;;5.10;;
55300;SDS011;58302;51.446;-2.000;2022-07-10T06:44:55;6.32;;;4.20;;
55300;SDS011;58302;51.446;-2.000;2022-07-10T06:47:21;4.82;;;4.07;;
55300;SDS011;58302;51.446;-2.000;2022-07-10T06:50:06;7.20;;;4.40;;
55300;SDS011;58302;51.446;-2.000;2022-07-10T06:52:34;4.80;;;3.20;;
55300;SDS011;58302;51.446;-2.000;2022-07-10T06:55:02;4.35;;;3.33;;
55300;SDS011;58302;51.446;-2.000;2022-07-10T06:57:29;4.65;;;3.30;;
55300;SDS011;58302;51.446;-2.000;2022-07-10T06:59:57;5.40;;;4.03;;
55300;SDS011;58302;51.446;-2.000;2022-07-10T07:02:23;4.95;;;4.07;;
55300;SDS011;58302;51.446;-2.000;2022-07-10T07:04:50;5.45;;;4.07;;
55300;SDS011;58302;51.446;-2.000;2022-07-10T07:07:16;6.60;;;3.85;;
55300;SDS011;58302;51.446;-2.000;2022-07-10T07:09:42;4.50;;;4.10;;
55300;SDS011;58302;51.446;-2.000;2022-07-10T07:12:10;5.45;;;4.40;;
55300;SDS011;58302;51.446;-2.000;2022-07-10T07:14:37;7.95;;;4.45;;
55300;SDS011;58302;51.446;-2.000;2022-07-10T07:17:04;6.13;;;4.18;;
55300;SDS011;58302;51.446;-2.000;2022-07-10T07:19:35;5.50;;;4.45;;
55300;SDS011;58302;51.446;-2.000;2022-07-10T07:22:20;5.43;;;4.28;;
55300;SDS011;58302;51.446;-2.000;2022-07-10T07:25:06;4.68;;;4.18;;
55300;SDS011;58302;51.446;-2.000;2022-07-10T07:27:36;5.75;;;3.97;;
55300;SDS011;58302;51.446;-2.000;2022-07-10T07:30:04;7.43;;;4.82;;
55300;SDS011;58302;51.446;-2.000;2022-07-10T07:32:40;4.97;;;3.92;;
55300;SDS011;58302;51.446;-2.000;2022-07-10T07:35:07;5.35;;;3.55;;
55300;SDS011;58302;51.446;-2.000;2022-07-10T07:37:43;4.07;;;3.38;;
55300;SDS011;58302;51.446;-2.000;2022-07-10T07:40:14;4.15;;;3.63;;
55300;SDS011;58302;51.446;-2.000;2022-07-10T07:42:42;6.10;;;3.97;;
55300;SDS011;58302;51.446;-2.000;2022-07-10T07:45:08;4.88;;;3.97;;
55300;SDS011;58302;51.446;-2.000;2022-07-10T07:47:45;4.93;;;4.05;;
55300;SDS011;58302;51.446;-2.000;2022-07-10T07:50:16;4.65;;;3.90;;
55300;SDS011;58302;51.446;-2.000;2022-07-10T07:52:44;5.03;;;4.53;;
55300;SDS011;58302;51.446;-2.000;2022-07-10T07:55:10;4.75;;;3.92;;
55300;SDS011;58302;51.446;-2.000;2022-07-10T07:57:37;5.20;;;3.50;;
55300;SDS011;58302;51.446;-2.000;2022-07-10T08:00:06;7.45;;;4.40;;
55300;SDS011;58302;51.446;-2.000;2022-07-10T08:02:34;3.97;;;3.53;;
55300;SDS011;58302;51.446;-2.000;2022-07-10T08:05:03;5.38;;;4.07;;
55300;SDS011;58302;51.446;-2.000;2022-07-10T08:07:35;4.55;;;3.60;;
55300;SDS011;58302;51.446;-2.000;2022-07-10T08:10:03;4.65;;;4.10;;
55300;SDS011;58302;51.446;-2.000;2022-07-10T08:12:30;4.15;;;3.35;;
55300;SDS011;58302;51.446;-2.000;2022-07-10T08:14:57;5.07;;;3.45;;
55300;SDS011;58302;51.446;-2.000;2022-07-10T08:17:24;3.97;;;3.10;;
55300;SDS011;58302;51.446;-2.000;2022-07-10T08:19:51;4.88;;;3.22;;
55300;SDS011;58302;51.446;-2.000;2022-07-10T08:22:19;3.42;;;3.03;;
55300;SDS011;58302;51.446;-2.000;2022-07-10T08:24:47;2.97;;;2.78;;
55300;SDS011;58302;51.446;-2.000;2022-07-10T08:27:16;3.55;;;3.08;;
55300;SDS011;58302;51.446;-2.000;2022-07-10T08:29:45;3.88;;;3.03;;
55300;SDS011;58302;51.446;-2.000;2022-07-10T08:32:13;4.97;;;3.17;;
55300;SDS011;58302;51.446;-2.000;2022-07-10T08:35:25;4.75;;;3.88;;
55300;SDS011;58302;51.446;-2.000;2022-07-10T08:38:00;3.92;;;3.08;;
55300;SDS011;58302;51.446;-2.000;2022-07-10T08:40:27;4.03;;;3.38;;
55300;SDS011;58302;51.446;-2.000;2022-07-10T08:43:04;3.92;;;3.15;;
55300;SDS011;58302;51.446;-2.000;2022-07-10T08:45:42;3.15;;;2.70;;
55300;SDS011;58302;51.446;-2.000;2022-07-10T08:48:10;4.45;;;3.45;;
55300;SDS011;58302;51.446;-2.000;2022-07-10T08:50:45;2.92;;;2.50;;
55300;SDS011;58302;51.446;-2.000;2022-07-10T08:53:28;4.53;;;2.75;;
55300;SDS011;58302;51.446;-2.000;2022-07-10T08:55:56;3.10;;;2.80;;
55300;SDS011;58302;51.446;-2.000;2022-07-10T08:58:23;3.00;;;2.70;;
55300;SDS011;58302;51.446;-2.000;2022-07-10T09:00:51;3.28;;;2.70;;
55300;SDS011;58302;51.446;-2.000;2022-07-10T09:03:20;4.72;;;2.42;;
55300;SDS011;58302;51.446;-2.000;2022-07-10T09:05:46;3.30;;;2.72;;
55300;SDS011;58302;51.446;-2.000;2022-07-10T09:08:24;4.38;;;2.70;;
55300;SDS011;58302;51.446;-2.000;2022-07-10T09:11:12;2.75;;;2.55;;
55300;SDS011;58302;51.446;-2.000;2022-07-10T09:13:55;3.22;;;2.90;;
55300;SDS011;58302;51.446;-2.000;2022-07-10T09:16:27;3.10;;;2.80;;
55300;SDS011;58302;51.446;-2.000;2022-07-10T09:18:55;3.65;;;3.20;;
55300;SDS011;58302;51.446;-2.000;2022-07-10T09:21:23;3.28;;;2.78;;
55300;SDS011;58302;51.446;-2.000;2022-07-10T09:23:49;3.22;;;2.92;;
55300;SDS011;58302;51.446;-2.000;2022-07-10T09:26:20;4.90;;;3.00;;
55300;SDS011;58302;51.446;-2.000;2022-07-10T09:28:46;4.10;;;2.80;;
55300;SDS011;58302;51.446;-2.000;2022-07-10T09:31:53;2.85;;;2.53;;
55300;SDS011;58302;51.446;-2.000;2022-07-10T09:34:39;2.63;;;2.38;;
55300;SDS011;58302;51.446;-2.000;2022-07-10T09:47:42;3.55;;;2.53;;
55300;SDS011;58302;51.446;-2.000;2022-07-10T09:52:55;2.63;;;2.42;;
55300;SDS011;58302;51.446;-2.000;2022-07-10T09:55:46;2.58;;;2.35;;
55300;SDS011;58302;51.446;-2.000;2022-07-10T09:58:13;2.63;;;2.42;;
55300;SDS011;58302;51.446;-2.000;2022-07-10T10:01:09;3.10;;;2.85;;
55300;SDS011;58302;51.446;-2.000;2022-07-10T10:03:58;3.28;;;2.60;;
55300;SDS011;58302;51.446;-2.000;2022-07-10T10:06:34;3.97;;;2.78;;
55300;SDS011;58302;51.446;-2.000;2022-07-10T10:11:38;3.78;;;2.85;;
55300;SDS011;58302;51.446;-2.000;2022-07-10T10:14:07;2.90;;;2.20;;
55300;SDS011;58302;51.446;-2.000;2022-07-10T10:16:35;3.50;;;2.33;;
55300;SDS011;58302;51.446;-2.000;2022-07-10T10:19:06;2.83;;;2.35;;
55300;SDS011;58302;51.446;-2.000;2022-07-10T10:21:55;4.15;;;2.40;;
55300;SDS011;58302;51.446;-2.000;2022-07-10T10:24:23;2.58;;;1.88;;
55300;SDS011;58302;51.446;-2.000;2022-07-10T10:27:06;4.45;;;1.80;;
55300;SDS011;58302;51.446;-2.000;2022-07-10T10:29:54;2.92;;;1.95;;
55300;SDS011;58302;51.446;-2.000;2022-07-10T10:32:39;2.20;;;2.00;;
55300;SDS011;58302;51.446;-2.000;2022-07-10T10:35:07;2.60;;;1.90;;
55300;SDS011;58302;51.446;-2.000;2022-07-10T10:37:40;2.10;;;1.90;;
55300;SDS011;58302;51.446;-2.000;2022-07-10T10:40:29;2.83;;;1.80;;
55300;SDS011;58302;51.446;-2.000;2022-07-10T10:43:23;1.85;;;1.60;;
55300;SDS011;58302;51.446;-2.000;2022-07-10T10:45:55;2.88;;;1.90;;
55300;SDS011;58302;51.446;-2.000;2022-07-10T10:48:21;3.95;;;1.63;;
55300;SDS011;58302;51.446;-2.000;2022-07-10T10:53:22;1.35;;;1.25;;
55300;SDS011;58302;51.446;-2.000;2022-07-10T10:58:37;2.47;;;2.20;;
55300;SDS011;58302;51.446;-2.000;2022-07-10T11:19:58;1.73;;;1.35;;
55300;SDS011;58302;51.446;-2.000;2022-07-10T11:29:05;2.03;;;1.42;;
55300;SDS011;58302;51.446;-2.000;2022-07-10T11:32:14;1.50;;;1.40;;
55300;SDS011;58302;51.446;-2.000;2022-07-10T11:38:37;2.00;;;1.20;;
55300;SDS011;58302;51.446;-2.000;2022-07-10T11:55:26;1.77;;;1.67;;
55300;SDS011;58302;51.446;-2.000;2022-07-10T11:58:13;1.98;;;1.83;;
55300;SDS011;58302;51.446;-2.000;2022-07-10T12:00:41;2.05;;;1.60;;
55300;SDS011;58302;51.446;-2.000;2022-07-10T12:03:20;1.77;;;1.67;;
55300;SDS011;58302;51.446;-2.000;2022-07-10T12:05:48;2.22;;;1.90;;
55300;SDS011;58302;51.446;-2.000;2022-07-10T12:08:16;1.88;;;1.70;;
55300;SDS011;58302;51.446;-2.000;2022-07-10T12:10:43;1.85;;;1.75;;
55300;SDS011;58302;51.446;-2.000;2022-07-10T12:13:12;2.50;;;1.67;;
55300;SDS011;58302;51.446;-2.000;2022-07-10T12:15:40;2.08;;;1.42;;
55300;SDS011;58302;51.446;-2.000;2022-07-10T12:18:17;1.75;;;1.65;;
55300;SDS011;58302;51.446;-2.000;2022-07-10T12:20:45;1.60;;;1.50;;
55300;SDS011;58302;51.446;-2.000;2022-07-10T12:23:14;2.08;;;1.80;;
55300;SDS011;58302;51.446;-2.000;2022-07-10T12:25:42;2.63;;;1.58;;
55300;SDS011;58302;51.446;-2.000;2022-07-10T12:28:09;1.80;;;1.70;;
55300;SDS011;58302;51.446;-2.000;2022-07-10T12:30:36;3.17;;;2.13;;
55300;SDS011;58302;51.446;-2.000;2022-07-10T12:33:09;2.55;;;1.55;;
55300;SDS011;58302;51.446;-2.000;2022-07-10T12:35:51;3.53;;;1.60;;
55300;SDS011;58302;51.446;-2.000;2022-07-10T12:38:25;2.55;;;1.60;;
55300;SDS011;58302;51.446;-2.000;2022-07-10T12:41:08;3.10;;;1.77;;
55300;SDS011;58302;51.446;-2.000;2022-07-10T12:43:36;1.48;;;1.35;;
55300;SDS011;58302;51.446;-2.000;2022-07-10T12:48:59;1.92;;;1.60;;
55300;SDS011;58302;51.446;-2.000;2022-07-10T12:51:34;1.88;;;1.40;;
55300;SDS011;58302;51.446;-2.000;2022-07-10T12:54:29;1.55;;;1.45;;
55300;SDS011;58302;51.446;-2.000;2022-07-10T12:57:02;2.25;;;1.42;;
55300;SDS011;58302;51.446;-2.000;2022-07-10T12:59:32;2.05;;;1.70;;
55300;SDS011;58302;51.446;-2.000;2022-07-10T13:01:59;1.40;;;1.30;;
55300;SDS011;58302;51.446;-2.000;2022-07-10T13:04:52;1.92;;;1.60;;
55300;SDS011;58302;51.446;-2.000;2022-07-10T13:07:31;2.45;;;1.50;;
55300;SDS011;58302;51.446;-2.000;2022-07-10T13:10:02;3.53;;;1.60;;
55300;SDS011;58302;51.446;-2.000;2022-07-10T13:12:31;1.90;;;1.35;;
55300;SDS011;58302;51.446;-2.000;2022-07-10T13:14:57;1.35;;;1.25;;
55300;SDS011;58302;51.446;-2.000;2022-07-10T13:17:23;1.77;;;1.30;;
55300;SDS011;58302;51.446;-2.000;2022-07-10T13:19:52;1.58;;;1.48;;
55300;SDS011;58302;51.446;-2.000;2022-07-10T13:22:18;2.30;;;1.60;;
55300;SDS011;58302;51.446;-2.000;2022-07-10T13:24:44;1.50;;;1.20;;
55300;SDS011;58302;51.446;-2.000;2022-07-10T13:27:10;1.48;;;1.33;;
55300;SDS011;58302;51.446;-2.000;2022-07-10T13:29:36;1.83;;;1.60;;
55300;SDS011;58302;51.446;-2.000;2022-07-10T13:32:02;1.80;;;1.40;;
55300;SDS011;58302;51.446;-2.000;2022-07-10T13:34:28;1.67;;;1.55;;
55300;SDS011;58302;51.446;-2.000;2022-07-10T13:36:55;1.50;;;1.40;;
55300;SDS011;58302;51.446;-2.000;2022-07-10T13:39:21;2.17;;;1.52;;
55300;SDS011;58302;51.446;-2.000;2022-07-10T13:41:48;1.63;;;1.40;;
55300;SDS011;58302;51.446;-2.000;2022-07-10T13:44:14;2.95;;;1.33;;
55300;SDS011;58302;51.446;-2.000;2022-07-10T13:46:40;1.40;;;1.30;;
55300;SDS011;58302;51.446;-2.000;2022-07-10T13:49:06;1.38;;;1.20;;
55300;SDS011;58302;51.446;-2.000;2022-07-10T13:51:32;1.50;;;1.40;;
55300;SDS011;58302;51.446;-2.000;2022-07-10T13:53:58;10.50;;;2.75;;
55300;SDS011;58302;51.446;-2.000;2022-07-10T13:56:24;1.85;;;1.00;;
55300;SDS011;58302;51.446;-2.000;2022-07-10T13:58:51;1.30;;;1.20;;
55300;SDS011;58302;51.446;-2.000;2022-07-10T14:01:18;1.35;;;1.25;;
55300;SDS011;58302;51.446;-2.000;2022-07-10T14:03:44;1.20;;;1.10;;
55300;SDS011;58302;51.446;-2.000;2022-07-10T14:06:10;1.30;;;1.10;;
55300;SDS011;58302;51.446;-2.000;2022-07-10T14:08:36;1.65;;;1.20;;
55300;SDS011;58302;51.446;-2.000;2022-07-10T14:11:02;1.45;;;1.27;;
55300;SDS011;58302;51.446;-2.000;2022-07-10T14:13:28;1.85;;;1.15;;
55300;SDS011;58302;51.446;-2.000;2022-07-10T14:15:54;2.15;;;1.10;;
55300;SDS011;58302;51.446;-2.000;2022-07-10T14:18:21;1.25;;;1.15;;
55300;SDS011;58302;51.446;-2.000;2022-07-10T14:21:10;2.50;;;1.33;;
55300;SDS011;58302;51.446;-2.000;2022-07-10T14:23:39;1.35;;;1.05;;
55300;SDS011;58302;51.446;-2.000;2022-07-10T14:26:10;1.17;;;1.08;;
55300;SDS011;58302;51.446;-2.000;2022-07-10T14:28:37;1.30;;;1.20;;
55300;SDS011;58302;51.446;-2.000;2022-07-10T14:31:04;2.13;;;1.20;;
55300;SDS011;58302;51.446;-2.000;2022-07-10T14:33:32;1.08;;;1.00;;
55300;SDS011;58302;51.446;-2.000;2022-07-10T14:35:59;1.15;;;1.05;;
55300;SDS011;58302;51.446;-2.000;2022-07-10T14:38:25;1.20;;;1.10;;
55300;SDS011;58302;51.446;-2.000;2022-07-10T14:40:51;1.58;;;1.38;;
55300;SDS011;58302;51.446;-2.000;2022-07-10T14:43:19;2.90;;;1.27;;
55300;SDS011;58302;51.446;-2.000;2022-07-10T14:45:45;1.45;;;1.20;;
55300;SDS011;58302;51.446;-2.000;2022-07-10T14:48:12;1.38;;;1.20;;
55300;SDS011;58302;51.446;-2.000;2022-07-10T14:50:38;1.10;;;1.00;;
55300;SDS011;58302;51.446;-2.000;2022-07-10T14:53:05;1.30;;;1.20;;
55300;SDS011;58302;51.446;-2.000;2022-07-10T14:55:34;1.30;;;1.20;;
55300;SDS011;58302;51.446;-2.000;2022-07-10T14:58:01;1.00;;;1.00;;
55300;SDS011;58302;51.446;-2.000;2022-07-10T15:00:28;1.55;;;1.30;;
55300;SDS011;58302;51.446;-2.000;2022-07-10T15:02:54;1.30;;;1.20;;
55300;SDS011;58302;51.446;-2.000;2022-07-10T15:05:20;1.75;;;1.65;;
55300;SDS011;58302;51.446;-2.000;2022-07-10T15:07:46;2.40;;;1.60;;
55300;SDS011;58302;51.446;-2.000;2022-07-10T15:10:12;2.20;;;1.48;;
55300;SDS011;58302;51.446;-2.000;2022-07-10T15:12:38;1.55;;;1.33;;
55300;SDS011;58302;51.446;-2.000;2022-07-10T15:15:04;2.35;;;1.60;;
55300;SDS011;58302;51.446;-2.000;2022-07-10T15:17:34;1.73;;;1.63;;
55300;SDS011;58302;51.446;-2.000;2022-07-10T15:20:01;2.78;;;1.25;;
55300;SDS011;58302;51.446;-2.000;2022-07-10T15:22:28;1.63;;;1.50;;
55300;SDS011;58302;51.446;-2.000;2022-07-10T15:24:54;1.50;;;1.35;;
55300;SDS011;58302;51.446;-2.000;2022-07-10T15:27:20;2.80;;;1.60;;
55300;SDS011;58302;51.446;-2.000;2022-07-10T15:29:46;1.70;;;1.60;;
55300;SDS011;58302;51.446;-2.000;2022-07-10T15:32:12;1.60;;;1.50;;
55300;SDS011;58302;51.446;-2.000;2022-07-10T15:34:38;1.48;;;1.38;;
55300;SDS011;58302;51.446;-2.000;2022-07-10T15:37:05;1.58;;;1.48;;
55300;SDS011;58302;51.446;-2.000;2022-07-10T15:39:31;1.45;;;1.35;;
55300;SDS011;58302;51.446;-2.000;2022-07-10T15:42:07;2.47;;;1.50;;
55300;SDS011;58302;51.446;-2.000;2022-07-10T15:44:33;1.77;;;1.35;;
55300;SDS011;58302;51.446;-2.000;2022-07-10T15:46:59;2.22;;;1.50;;
55300;SDS011;58302;51.446;-2.000;2022-07-10T15:49:25;1.27;;;1.17;;
55300;SDS011;58302;51.446;-2.000;2022-07-10T15:51:51;1.42;;;1.33;;
55300;SDS011;58302;51.446;-2.000;2022-07-10T15:54:17;1.50;;;1.40;;
55300;SDS011;58302;51.446;-2.000;2022-07-10T15:56:44;1.33;;;1.20;;